Time;durP1;ratioP1;P1;durP2;ratioP2;P2;SDS_P1;SDS_P2;PMS_P1;PMS_P2;Temp;Humidity;BMP_temperature;BMP_pressure;BME280_temperature;BME280_humidity;BME280_pressure;Samples;Min_cycle;Max_cycle;Signal;HPM_P1;HPM_P2
2021/09/19 00:00:29;;;;;;;;;;;14.10;99.90;;;;;;5938925;23;25063;-72
2021/09/19 00:02:54;;;;;;;;;;;14.10;99.90;;;;;;5944923;23;20061;-71
2021/09/19 00:05:22;;;;;;;;;;;14.10;99.90;;;;;;5944209;23;25053;-71
2021/09/19 00:07:50;;;;;;;;;;;14.10;99.90;;;;;;5944579;23;25043;-71
2021/09/19 00:10:18;;;;;;;;;;;14.10;99.90;;;;;;5944569;23;20081;-72
2021/09/19 00:12:47;;;;;;;;;;;14.10;99.90;;;;;;5944915;23;25102;-72
2021/09/19 00:15:18;;;;;;;;;;;14.10;99.90;;;;;;5919072;23;20432;-72
2021/09/19 00:17:44;;;;;;;;;;;14.10;99.90;;;;;;5942943;23;20117;-71
2021/09/19 00:20:10;;;;;;;;;;;14.10;99.90;;;;;;5920694;23;20465;-70
2021/09/19 00:22:41;;;;;;;;;;;14.10;99.90;;;;;;5955608;23;20122;-72
2021/09/19 00:25:08;;;;;;;;;;;14.10;99.90;;;;;;5960078;23;20728;-72
2021/09/19 00:27:33;;;;;;;;;;;14.10;99.90;;;;;;5920058;23;20143;-72
2021/09/19 00:29:59;;;;;;;;;;;14.10;99.90;;;;;;5944094;23;20125;-70
2021/09/19 00:32:25;;;;;;;;;;;14.10;99.90;;;;;;5943691;23;25055;-71
2021/09/19 00:34:50;;;;;;;;;;;14.10;99.90;;;;;;5946448;23;20314;-71
2021/09/19 00:37:18;;;;;;;;;;;14.00;99.90;;;;;;5917338;23;25046;-72
2021/09/19 00:39:43;;;;;;;;;;;14.00;99.90;;;;;;5945118;23;20187;-71
2021/09/19 00:42:09;;;;;;;;;;;14.00;99.90;;;;;;5944376;23;20527;-71
2021/09/19 00:44:36;;;;;;;;;;;14.00;99.90;;;;;;5943763;23;20439;-71
2021/09/19 00:47:01;;;;;;;;;;;14.00;99.90;;;;;;5943974;23;20226;-71
2021/09/19 00:49:29;;;;;;;;;;;14.00;99.90;;;;;;5944305;23;25111;-71
2021/09/19 00:51:55;;;;;;;;;;;14.00;99.90;;;;;;5943273;23;19965;-72
2021/09/19 00:54:21;;;;;;;;;;;14.00;99.90;;;;;;5941217;23;25124;-71
2021/09/19 00:56:50;;;;;;;;;;;14.00;99.90;;;;;;5917300;23;19984;-72
2021/09/19 00:59:19;;;;;;;;;;;14.00;99.90;;;;;;5944175;23;20072;-72
2021/09/19 01:01:44;;;;;;;;;;;14.00;99.90;;;;;;5943152;23;25049;-72
2021/09/19 01:04:10;;;;;;;;;;;14.00;99.90;;;;;;5943097;23;20090;-73
2021/09/19 01:06:36;;;;;;;;;;;14.00;99.90;;;;;;5917837;23;25087;-72
2021/09/19 01:09:02;;;;;;;;;;;14.00;99.90;;;;;;5944313;23;20136;-72
2021/09/19 01:11:30;;;;;;;;;;;14.00;99.90;;;;;;5944656;23;20383;-71
2021/09/19 01:13:58;;;;;;;;;;;14.00;99.90;;;;;;5943712;23;25047;-71
2021/09/19 01:16:23;;;;;;;;;;;14.00;99.90;;;;;;5942512;23;20064;-71
2021/09/19 01:18:54;;;;;;;;;;;14.00;99.90;;;;;;5944012;23;20095;-71
2021/09/19 01:21:19;;;;;;;;;;;14.00;99.90;;;;;;5918079;23;25057;-72
2021/09/19 01:24:01;;;;;;;;;;;14.00;99.90;;;;;;5944755;23;20032;-72
2021/09/19 01:26:26;;;;;;;;;;;14.00;99.90;;;;;;5944187;23;20539;-71
2021/09/19 01:28:53;;;;;;;;;;;14.00;99.90;;;;;;5945072;23;20102;-71
2021/09/19 01:31:18;;;;;;;;;;;14.00;99.90;;;;;;5941719;23;20087;-71
2021/09/19 01:33:44;;;;;;;;;;;13.90;99.90;;;;;;5943156;23;25105;-71
2021/09/19 01:36:15;;;;;;;;;;;13.90;99.90;;;;;;5944266;23;20224;-72
2021/09/19 01:38:43;;;;;;;;;;;13.90;99.90;;;;;;5947424;23;20066;-72
2021/09/19 01:41:09;;;;;;;;;;;13.90;99.90;;;;;;5945047;23;20181;-71
2021/09/19 01:43:37;;;;;;;;;;;14.00;99.90;;;;;;5925372;23;25073;-72
2021/09/19 01:46:03;;;;;;;;;;;14.00;99.90;;;;;;5946824;23;19983;-72
2021/09/19 01:48:33;;;;;;;;;;;14.00;99.90;;;;;;5945678;23;25104;-72
2021/09/19 01:50:59;;;;;;;;;;;14.00;99.90;;;;;;5943108;23;20099;-72
2021/09/19 01:53:24;;;;;;;;;;;14.00;99.90;;;;;;5943399;23;25120;-72
2021/09/19 01:55:53;;;;;;;;;;;14.00;99.90;;;;;;5943317;23;25060;-72
2021/09/19 01:58:18;;;;;;;;;;;14.00;99.90;;;;;;5940694;23;20379;-72
2021/09/19 02:00:44;;;;;;;;;;;14.00;99.90;;;;;;5944884;23;19962;-71
2021/09/19 02:03:11;;;;;;;;;;;14.00;99.90;;;;;;5944021;23;20130;-72
2021/09/19 02:05:39;;;;;;;;;;;14.00;99.90;;;;;;5918973;23;20476;-72
2021/09/19 02:08:05;;;;;;;;;;;14.00;99.90;;;;;;5945169;23;20092;-71
2021/09/19 02:10:30;;;;;;;;;;;14.00;99.90;;;;;;5919223;23;20483;-71
2021/09/19 02:12:56;;;;;;;;;;;14.00;99.90;;;;;;5944496;23;20144;-71
2021/09/19 02:15:21;;;;;;;;;;;14.10;99.90;;;;;;5942003;23;20265;-71
2021/09/19 02:17:47;;;;;;;;;;;14.10;99.90;;;;;;5943990;23;20128;-71
2021/09/19 02:20:13;;;;;;;;;;;14.10;99.90;;;;;;5919519;23;25059;-71
2021/09/19 02:22:39;;;;;;;;;;;14.10;99.90;;;;;;5943920;23;25041;-71
2021/09/19 02:25:08;;;;;;;;;;;14.10;99.90;;;;;;5944038;23;20378;-71
2021/09/19 02:27:35;;;;;;;;;;;14.10;99.90;;;;;;5943350;23;20231;-71
2021/09/19 02:30:02;;;;;;;;;;;14.10;99.90;;;;;;5943168;23;25041;-72
2021/09/19 02:32:38;;;;;;;;;;;;;;;;;;;;;
2021/09/19 02:35:05;;;;;;;;;;;14.10;99.90;;;;;;5943564;23;20105;-71
2021/09/19 02:37:34;;;;;;;;;;;14.10;99.90;;;;;;5942449;23;25066;-71
2021/09/19 02:39:59;;;;;;;;;;;14.10;99.90;;;;;;5943638;23;20069;-71
2021/09/19 02:42:25;;;;;;;;;;;14.10;99.90;;;;;;5943854;23;25066;-72
2021/09/19 02:44:50;;;;;;;;;;;14.10;99.90;;;;;;5944074;23;20035;-72
2021/09/19 02:47:16;;;;;;;;;;;14.10;99.90;;;;;;5944781;23;19974;-71
2021/09/19 02:49:41;;;;;;;;;;;14.10;99.90;;;;;;5944225;23;20104;-71
2021/09/19 02:52:06;;;;;;;;;;;14.10;99.90;;;;;;5944954;23;25044;-72
2021/09/19 02:54:32;;;;;;;;;;;14.10;99.90;;;;;;5944184;23;25086;-71
2021/09/19 02:56:58;;;;;;;;;;;14.00;99.90;;;;;;5942958;23;25053;-71
2021/09/19 02:59:23;;;;;;;;;;;14.10;99.90;;;;;;5943098;23;20413;-71
2021/09/19 03:01:49;;;;;;;;;;;14.00;99.90;;;;;;5944779;23;20067;-71
2021/09/19 03:04:14;;;;;;;;;;;14.10;99.90;;;;;;5943944;23;25057;-72
2021/09/19 03:06:40;;;;;;;;;;;14.00;99.90;;;;;;5922725;23;25072;-72
2021/09/19 03:09:05;;;;;;;;;;;14.00;99.90;;;;;;5940103;23;20106;-71
2021/09/19 03:11:33;;;;;;;;;;;14.00;99.90;;;;;;5955584;23;19985;-71
2021/09/19 03:14:01;;;;;;;;;;;14.00;99.90;;;;;;5944478;23;20092;-71
2021/09/19 03:16:27;;;;;;;;;;;14.00;99.90;;;;;;5944416;23;20176;-71
2021/09/19 03:18:52;;;;;;;;;;;14.00;99.90;;;;;;5945360;23;20612;-71
2021/09/19 03:21:17;;;;;;;;;;;14.10;99.90;;;;;;5945102;23;20095;-72
2021/09/19 03:23:43;;;;;;;;;;;14.00;99.90;;;;;;5944568;23;25087;-72
2021/09/19 03:26:08;;;;;;;;;;;14.10;99.90;;;;;;5942721;23;20083;-71
2021/09/19 03:28:34;;;;;;;;;;;14.00;99.90;;;;;;5943165;23;19967;-72
2021/09/19 03:30:59;;;;;;;;;;;14.00;99.90;;;;;;5944318;23;20133;-72
2021/09/19 03:33:25;;;;;;;;;;;14.00;99.90;;;;;;5943210;23;20125;-71
2021/09/19 03:35:53;;;;;;;;;;;14.00;99.90;;;;;;5944551;23;20101;-71
2021/09/19 03:38:19;;;;;;;;;;;14.00;99.90;;;;;;5945585;23;25048;-71
2021/09/19 03:40:44;;;;;;;;;;;14.00;99.90;;;;;;5945946;23;19977;-72
2021/09/19 03:43:10;;;;;;;;;;;14.00;99.90;;;;;;5946845;23;20528;-72
2021/09/19 03:45:35;;;;;;;;;;;14.00;99.90;;;;;;5945530;23;25045;-71
2021/09/19 03:48:01;;;;;;;;;;;14.00;99.90;;;;;;5946486;23;20101;-72
2021/09/19 03:50:30;;;;;;;;;;;14.00;99.90;;;;;;5946252;23;20089;-71
2021/09/19 03:52:55;;;;;;;;;;;14.00;99.90;;;;;;5945164;23;20105;-71
2021/09/19 03:55:24;;;;;;;;;;;14.00;99.90;;;;;;5944614;23;25049;-72
2021/09/19 03:57:49;;;;;;;;;;;14.00;99.90;;;;;;5950910;23;20048;-71
2021/09/19 04:00:15;;;;;;;;;;;14.00;99.90;;;;;;5946632;23;19989;-72
2021/09/19 04:02:41;;;;;;;;;;;14.00;99.90;;;;;;5946962;23;20165;-71
2021/09/19 04:05:09;;;;;;;;;;;14.00;99.90;;;;;;5945557;23;20050;-72
2021/09/19 04:07:34;;;;;;;;;;;14.00;99.90;;;;;;5920408;23;19974;-71
2021/09/19 04:10:00;;;;;;;;;;;14.00;99.90;;;;;;5944879;23;25041;-72
2021/09/19 04:12:25;;;;;;;;;;;14.00;99.90;;;;;;5946450;23;20059;-72
2021/09/19 04:14:53;;;;;;;;;;;14.00;99.90;;;;;;5921402;23;20059;-72
2021/09/19 04:17:19;;;;;;;;;;;14.00;99.90;;;;;;5948415;23;20171;-71
2021/09/19 04:19:47;;;;;;;;;;;14.00;99.90;;;;;;5944631;23;25038;-72
2021/09/19 04:22:12;;;;;;;;;;;14.00;99.90;;;;;;5945981;23;20045;-72
2021/09/19 04:24:38;;;;;;;;;;;14.00;99.90;;;;;;5945554;23;25045;-71
2021/09/19 04:27:04;;;;;;;;;;;14.00;99.90;;;;;;5943815;23;20354;-72
2021/09/19 04:29:29;;;;;;;;;;;14.00;99.90;;;;;;5945141;23;20873;-71
2021/09/19 04:31:57;;;;;;;;;;;14.10;99.90;;;;;;5919279;23;25036;-72
2021/09/19 04:34:26;;;;;;;;;;;14.00;99.90;;;;;;5940611;23;20115;-72
2021/09/19 04:36:51;;;;;;;;;;;14.00;99.90;;;;;;5941981;23;20222;-72
2021/09/19 04:39:16;;;;;;;;;;;14.00;99.90;;;;;;5942716;23;25085;-71
2021/09/19 04:41:42;;;;;;;;;;;14.00;99.90;;;;;;5942337;23;25047;-72
2021/09/19 04:44:07;;;;;;;;;;;14.00;99.90;;;;;;5942908;23;19972;-72
2021/09/19 04:46:33;;;;;;;;;;;14.10;99.90;;;;;;5944566;23;20099;-72
2021/09/19 04:48:58;;;;;;;;;;;14.10;99.90;;;;;;5946752;23;19967;-71
2021/09/19 04:51:24;;;;;;;;;;;14.00;99.90;;;;;;5945878;23;20141;-72
2021/09/19 04:53:54;;;;;;;;;;;14.00;99.90;;;;;;5921432;23;20564;-72
2021/09/19 04:56:20;;;;;;;;;;;14.00;99.90;;;;;;5944634;23;19959;-72
2021/09/19 04:58:45;;;;;;;;;;;14.00;99.90;;;;;;5944780;23;25065;-72
2021/09/19 05:01:10;;;;;;;;;;;14.00;99.90;;;;;;5946233;23;20115;-71
2021/09/19 05:03:43;;;;;;;;;;;14.00;99.90;;;;;;5944981;23;19970;-71
2021/09/19 05:06:09;;;;;;;;;;;14.10;99.90;;;;;;5940718;23;20108;-71
2021/09/19 05:08:34;;;;;;;;;;;14.00;99.90;;;;;;5940362;23;20115;-71
2021/09/19 05:11:01;;;;;;;;;;;14.00;99.90;;;;;;5943121;23;20131;-71
2021/09/19 05:13:27;;;;;;;;;;;14.00;99.90;;;;;;5944939;23;19961;-70
2021/09/19 05:15:52;;;;;;;;;;;14.10;99.90;;;;;;5939610;23;20609;-70
2021/09/19 05:18:17;;;;;;;;;;;14.00;99.90;;;;;;5943150;23;20087;-71
2021/09/19 05:20:43;;;;;;;;;;;14.10;99.90;;;;;;5941481;23;20102;-70
2021/09/19 05:23:08;;;;;;;;;;;14.10;99.90;;;;;;5917711;23;20064;-70
2021/09/19 05:25:34;;;;;;;;;;;14.00;99.90;;;;;;5938564;23;20127;-71
2021/09/19 05:27:59;;;;;;;;;;;14.10;99.90;;;;;;5939776;23;25041;-70
2021/09/19 05:30:25;;;;;;;;;;;14.10;99.90;;;;;;5940281;23;20129;-70
2021/09/19 05:32:50;;;;;;;;;;;14.10;99.90;;;;;;5914559;23;20147;-71
2021/09/19 05:35:23;;;;;;;;;;;14.10;99.90;;;;;;5938145;23;20132;-71
2021/09/19 05:37:49;;;;;;;;;;;14.10;99.90;;;;;;5941596;23;20467;-70
2021/09/19 05:40:14;;;;;;;;;;;14.10;99.90;;;;;;5941609;23;25105;-70
2021/09/19 05:42:40;;;;;;;;;;;14.10;99.90;;;;;;5951443;23;20091;-71
2021/09/19 05:45:05;;;;;;;;;;;14.10;99.90;;;;;;5948958;23;19979;-71
2021/09/19 05:47:31;;;;;;;;;;;14.10;99.90;;;;;;5937298;23;25042;-71
2021/09/19 05:49:59;;;;;;;;;;;14.10;99.90;;;;;;5940745;23;25043;-71
2021/09/19 05:52:27;;;;;;;;;;;14.10;99.90;;;;;;5939992;23;20339;-70
2021/09/19 05:54:52;;;;;;;;;;;14.10;99.90;;;;;;5950623;23;20151;-71
2021/09/19 05:57:20;;;;;;;;;;;14.20;99.90;;;;;;5937511;23;25056;-70
2021/09/19 05:59:45;;;;;;;;;;;14.20;99.90;;;;;;5914066;23;25053;-71
2021/09/19 06:02:11;;;;;;;;;;;14.20;99.90;;;;;;5942393;23;19979;-70
2021/09/19 06:04:36;;;;;;;;;;;14.20;99.90;;;;;;5931689;23;25163;-70
2021/09/19 06:07:02;;;;;;;;;;;14.20;99.90;;;;;;5938161;23;19985;-71
2021/09/19 06:09:27;;;;;;;;;;;14.20;99.90;;;;;;5937720;23;20111;-71
2021/09/19 06:11:53;;;;;;;;;;;14.30;99.90;;;;;;5938363;23;25070;-67
2021/09/19 06:14:18;;;;;;;;;;;14.30;99.90;;;;;;5942206;23;20081;-68
2021/09/19 06:16:43;;;;;;;;;;;14.30;99.90;;;;;;5936488;23;25090;-69
2021/09/19 06:19:09;;;;;;;;;;;14.30;99.90;;;;;;5938013;23;20102;-68
2021/09/19 06:21:35;;;;;;;;;;;14.30;99.90;;;;;;5933913;23;25091;-69
2021/09/19 06:24:00;;;;;;;;;;;14.30;99.90;;;;;;5939060;23;25075;-68
2021/09/19 06:26:25;;;;;;;;;;;14.30;99.90;;;;;;5940427;23;20436;-69
2021/09/19 06:28:51;;;;;;;;;;;14.30;99.90;;;;;;5943121;23;20116;-68
2021/09/19 06:31:16;;;;;;;;;;;14.30;99.90;;;;;;5943047;23;20072;-71
2021/09/19 06:33:42;;;;;;;;;;;14.30;99.90;;;;;;5935423;23;25059;-69
2021/09/19 06:36:08;;;;;;;;;;;14.30;99.90;;;;;;5939993;23;25053;-69
2021/09/19 06:38:34;;;;;;;;;;;14.30;99.90;;;;;;5917491;23;25036;-68
2021/09/19 06:40:59;;;;;;;;;;;14.40;99.90;;;;;;5943585;23;20018;-69
2021/09/19 06:43:25;;;;;;;;;;;14.40;99.90;;;;;;5945006;23;25168;-68
2021/09/19 06:45:50;;;;;;;;;;;14.40;99.90;;;;;;5939719;23;20119;-68
2021/09/19 06:48:16;;;;;;;;;;;14.40;99.90;;;;;;5937520;23;20177;-66
2021/09/19 06:50:41;;;;;;;;;;;14.40;99.90;;;;;;5939146;23;25056;-67
2021/09/19 06:53:07;;;;;;;;;;;14.40;99.90;;;;;;5937223;23;25078;-70
2021/09/19 06:55:32;;;;;;;;;;;14.40;99.90;;;;;;5937263;23;20547;-69
2021/09/19 06:57:58;;;;;;;;;;;14.40;99.90;;;;;;5942842;23;20088;-67
2021/09/19 07:00:23;;;;;;;;;;;14.50;99.90;;;;;;5944415;23;19991;-68
2021/09/19 07:02:49;;;;;;;;;;;14.50;99.90;;;;;;5945749;23;20146;-68
2021/09/19 07:05:15;;;;;;;;;;;14.50;99.90;;;;;;5943689;23;20546;-66
2021/09/19 07:07:40;;;;;;;;;;;14.50;99.90;;;;;;5942491;23;20114;-67
2021/09/19 07:10:06;;;;;;;;;;;14.50;99.90;;;;;;5944862;23;19958;-68
2021/09/19 07:12:31;;;;;;;;;;;14.50;99.90;;;;;;5945096;23;25112;-68
2021/09/19 07:14:57;;;;;;;;;;;14.50;99.90;;;;;;5945039;23;19970;-69
2021/09/19 07:17:22;;;;;;;;;;;14.50;99.90;;;;;;5944048;23;25040;-69
2021/09/19 07:19:47;;;;;;;;;;;14.50;99.90;;;;;;5946616;23;19975;-69
2021/09/19 07:22:13;;;;;;;;;;;14.60;99.90;;;;;;5921411;23;20543;-69
2021/09/19 07:24:39;;;;;;;;;;;14.60;99.90;;;;;;5944626;23;20098;-68
2021/09/19 07:27:04;;;;;;;;;;;14.60;99.90;;;;;;5940843;23;25092;-69
2021/09/19 07:29:33;;;;;;;;;;;14.60;99.90;;;;;;5942118;23;20588;-68
2021/09/19 07:32:01;;;;;;;;;;;14.60;99.90;;;;;;5917660;23;20075;-68
2021/09/19 07:34:30;;;;;;;;;;;14.70;99.90;;;;;;5944643;23;25126;-68
2021/09/19 07:36:56;;;;;;;;;;;14.70;99.90;;;;;;5941484;23;19960;-69
2021/09/19 07:39:21;;;;;;;;;;;14.70;99.90;;;;;;5946737;23;20400;-66
2021/09/19 07:41:52;;;;;;;;;;;14.80;99.90;;;;;;5920588;23;20174;-68
2021/09/19 07:44:18;;;;;;;;;;;14.80;99.90;;;;;;5946038;23;20489;-70
2021/09/19 07:46:44;;;;;;;;;;;14.90;99.90;;;;;;5938431;23;20128;-71
2021/09/19 07:49:09;;;;;;;;;;;14.90;99.90;;;;;;5918395;23;25058;-71
2021/09/19 07:51:35;;;;;;;;;;;15.00;99.90;;;;;;5928565;23;20460;-71
2021/09/19 07:54:01;;;;;;;;;;;15.00;99.90;;;;;;5931024;23;20359;-72
2021/09/19 07:56:26;;;;;;;;;;;15.10;99.90;;;;;;5903716;23;20216;-67
2021/09/19 07:58:51;;;;;;;;;;;15.10;99.90;;;;;;5938108;23;20281;-69
2021/09/19 08:01:17;;;;;;;;;;;15.10;99.90;;;;;;5935131;23;25074;-68
2021/09/19 08:03:42;;;;;;;;;;;15.20;99.90;;;;;;5933043;23;20097;-69
2021/09/19 08:06:08;;;;;;;;;;;15.20;99.90;;;;;;5909643;23;20520;-66
2021/09/19 08:08:33;;;;;;;;;;;15.20;99.90;;;;;;5936598;23;20118;-67
2021/09/19 08:10:59;;;;;;;;;;;15.30;99.90;;;;;;5931778;23;25380;-68
2021/09/19 08:13:24;;;;;;;;;;;15.30;99.90;;;;;;5933665;23;25132;-68
2021/09/19 08:15:50;;;;;;;;;;;15.40;99.90;;;;;;5933120;23;25043;-68
2021/09/19 08:18:15;;;;;;;;;;;15.40;99.90;;;;;;5936497;23;25116;-68
2021/09/19 08:20:41;;;;;;;;;;;15.40;99.90;;;;;;5947759;23;19969;-68
2021/09/19 08:23:10;;;;;;;;;;;15.50;99.90;;;;;;5925107;23;25060;-73
2021/09/19 08:25:35;;;;;;;;;;;15.50;99.90;;;;;;5914047;23;20067;-68
2021/09/19 08:28:01;;;;;;;;;;;15.50;99.90;;;;;;5937575;23;20575;-68
2021/09/19 08:30:26;;;;;;;;;;;15.60;99.90;;;;;;5935558;23;20155;-68
2021/09/19 08:32:52;;;;;;;;;;;15.50;99.90;;;;;;5935697;23;25041;-68
2021/09/19 08:35:17;;;;;;;;;;;15.50;99.90;;;;;;5935943;23;25073;-68
2021/09/19 08:37:43;;;;;;;;;;;15.60;99.90;;;;;;5938413;23;20185;-66
2021/09/19 08:40:10;;;;;;;;;;;15.60;99.90;;;;;;5938341;23;19967;-70
2021/09/19 08:42:36;;;;;;;;;;;15.70;99.90;;;;;;5934262;23;25061;-67
2021/09/19 08:45:03;;;;;;;;;;;15.70;99.90;;;;;;5937772;23;20173;-69
2021/09/19 08:47:30;;;;;;;;;;;15.70;99.90;;;;;;5952560;23;20102;-68
2021/09/19 08:49:56;;;;;;;;;;;15.80;99.90;;;;;;5945311;23;20077;-70
2021/09/19 08:52:22;;;;;;;;;;;15.80;99.90;;;;;;5939586;23;20125;-69
2021/09/19 08:54:47;;;;;;;;;;;15.90;99.90;;;;;;5916508;23;20560;-70
2021/09/19 08:57:13;;;;;;;;;;;15.90;99.90;;;;;;5938865;23;20543;-70
2021/09/19 08:59:59;;;;;;;;;;;15.90;99.90;;;;;;5939299;23;20293;-71
2021/09/19 09:02:24;;;;;;;;;;;16.00;99.90;;;;;;5940215;23;25088;-70
2021/09/19 09:04:54;;;;;;;;;;;16.10;99.90;;;;;;5938866;23;20456;-69
2021/09/19 09:07:24;;;;;;;;;;;16.10;99.90;;;;;;5937914;23;20408;-67
2021/09/19 09:09:54;;;;;;;;;;;16.20;99.90;;;;;;5944928;23;20516;-68
2021/09/19 09:12:19;;;;;;;;;;;16.20;99.90;;;;;;5942531;23;25082;-68
2021/09/19 09:14:47;;;;;;;;;;;16.30;99.90;;;;;;5940896;23;20209;-68
2021/09/19 09:17:13;;;;;;;;;;;16.30;99.90;;;;;;5941988;23;20893;-68
2021/09/19 09:19:39;;;;;;;;;;;16.40;99.90;;;;;;5950127;23;20594;-68
2021/09/19 09:22:04;;;;;;;;;;;16.40;99.90;;;;;;5942339;23;25102;-68
2021/09/19 09:24:30;;;;;;;;;;;16.50;99.90;;;;;;5940778;23;20172;-68
2021/09/19 09:26:55;;;;;;;;;;;16.50;99.90;;;;;;5941720;23;20135;-70
2021/09/19 09:29:21;;;;;;;;;;;16.50;99.90;;;;;;5941128;23;25123;-68
2021/09/19 09:31:48;;;;;;;;;;;16.60;99.90;;;;;;5943026;23;20395;-68
2021/09/19 09:34:14;;;;;;;;;;;16.70;99.90;;;;;;5939470;23;20584;-68
2021/09/19 09:36:41;;;;;;;;;;;16.70;99.90;;;;;;5940553;23;25049;-66
2021/09/19 09:39:25;;;;;;;;;;;16.80;99.90;;;;;;5945048;23;20489;-68
2021/09/19 09:41:52;;;;;;;;;;;16.80;99.90;;;;;;5941696;23;25097;-67
2021/09/19 09:44:26;;;;;;;;;;;16.90;99.90;;;;;;5938821;23;25042;-67
2021/09/19 09:46:52;;;;;;;;;;;17.00;99.90;;;;;;5954462;23;20986;-68
2021/09/19 09:49:37;;;;;;;;;;;17.00;99.90;;;;;;5942655;23;20174;-67
2021/09/19 09:52:07;;;;;;;;;;;17.00;99.90;;;;;;5940674;23;19971;-66
2021/09/19 09:54:39;;;;;;;;;;;17.10;99.90;;;;;;5941489;23;20559;-68
2021/09/19 09:57:04;;;;;;;;;;;17.10;99.90;;;;;;5939921;23;20106;-67
2021/09/19 09:59:30;;;;;;;;;;;17.10;99.90;;;;;;5942793;23;25089;-67
2021/09/19 10:02:01;;;;;;;;;;;17.10;99.90;;;;;;5942152;23;20080;-68
2021/09/19 10:04:27;;;;;;;;;;;17.20;99.90;;;;;;5944197;23;20408;-67
2021/09/19 10:06:53;;;;;;;;;;;17.20;99.90;;;;;;5934069;23;25061;-67
2021/09/19 10:09:18;;;;;;;;;;;17.30;99.90;;;;;;5942910;23;20081;-67
2021/09/19 10:11:44;;;;;;;;;;;17.30;99.90;;;;;;5944575;23;19972;-67
2021/09/19 10:14:09;;;;;;;;;;;17.30;99.90;;;;;;5918129;23;25083;-70
2021/09/19 10:16:35;;;;;;;;;;;17.30;99.90;;;;;;5943975;23;19973;-68
2021/09/19 10:19:00;;;;;;;;;;;17.40;99.90;;;;;;5945154;23;20094;-67
2021/09/19 10:21:26;;;;;;;;;;;17.40;99.90;;;;;;5942708;23;20112;-67
2021/09/19 10:23:53;;;;;;;;;;;17.30;99.90;;;;;;5944334;23;19975;-68
2021/09/19 10:26:22;;;;;;;;;;;17.40;99.90;;;;;;5941804;23;20165;-67
2021/09/19 10:28:53;;;;;;;;;;;17.40;99.90;;;;;;5943665;23;20471;-68
2021/09/19 10:31:22;;;;;;;;;;;17.40;99.90;;;;;;5943701;23;20026;-68
2021/09/19 10:33:57;;;;;;;;;;;17.40;99.90;;;;;;5945226;23;20097;-67
2021/09/19 10:36:22;;;;;;;;;;;17.50;99.90;;;;;;5918838;23;25088;-68
2021/09/19 10:38:48;;;;;;;;;;;17.50;99.90;;;;;;5944572;23;19997;-68
2021/09/19 10:41:21;;;;;;;;;;;17.60;99.90;;;;;;5945233;23;20491;-68
2021/09/19 10:43:50;;;;;;;;;;;17.70;99.90;;;;;;5944993;23;25103;-69
2021/09/19 10:46:34;;;;;;;;;;;17.70;99.90;;;;;;5916831;23;19978;-69
2021/09/19 10:49:22;;;;;;;;;;;17.70;99.90;;;;;;5942890;23;20155;-68
2021/09/19 10:51:59;;;;;;;;;;;17.80;99.90;;;;;;5941418;23;20292;-68
2021/09/19 10:54:54;;;;;;;;;;;17.80;99.90;;;;;;5946224;23;25062;-67
2021/09/19 10:57:29;;;;;;;;;;;17.80;99.90;;;;;;5927711;23;19993;-68
2021/09/19 11:00:07;;;;;;;;;;;17.90;99.90;;;;;;5918395;23;20277;-69
2021/09/19 11:02:33;;;;;;;;;;;17.90;99.90;;;;;;5944070;23;20059;-69
2021/09/19 11:05:17;;;;;;;;;;;17.80;99.90;;;;;;5943402;23;20110;-69
2021/09/19 11:07:43;;;;;;;;;;;17.90;99.90;;;;;;5939595;23;25056;-69
2021/09/19 11:10:09;;;;;;;;;;;18.00;99.90;;;;;;5940149;23;25050;-68
2021/09/19 11:12:46;;;;;;;;;;;18.00;99.90;;;;;;5942947;23;19956;-67
2021/09/19 11:15:14;;;;;;;;;;;17.90;99.90;;;;;;5942683;23;20159;-67
2021/09/19 11:17:48;;;;;;;;;;;17.90;99.90;;;;;;5939899;23;25085;-67
2021/09/19 11:20:13;;;;;;;;;;;18.00;99.90;;;;;;5941753;23;20108;-67
2021/09/19 11:22:40;;;;;;;;;;;18.10;99.90;;;;;;5915998;23;25087;-67
2021/09/19 11:25:05;;;;;;;;;;;18.20;99.90;;;;;;5960433;23;25059;-65
2021/09/19 11:27:31;;;;;;;;;;;18.20;99.90;;;;;;5940132;23;20074;-67
2021/09/19 11:29:57;;;;;;;;;;;18.30;99.90;;;;;;5944232;23;20130;-67
2021/09/19 11:32:23;;;;;;;;;;;18.40;99.90;;;;;;5942648;23;25078;-67
2021/09/19 11:34:48;;;;;;;;;;;18.50;99.90;;;;;;5942994;23;20281;-68
2021/09/19 11:37:14;;;;;;;;;;;18.50;99.90;;;;;;5940179;23;20068;-68
2021/09/19 11:39:39;;;;;;;;;;;18.60;99.90;;;;;;5940992;23;26044;-68
2021/09/19 11:42:09;;;;;;;;;;;18.70;99.90;;;;;;5924362;23;20102;-67
2021/09/19 11:44:36;;;;;;;;;;;18.70;99.90;;;;;;5955414;23;25043;-68
2021/09/19 11:47:03;;;;;;;;;;;18.80;99.90;;;;;;5955160;23;20229;-68
2021/09/19 11:49:29;;;;;;;;;;;18.90;99.90;;;;;;5948407;23;25056;-68
2021/09/19 11:51:54;;;;;;;;;;;19.00;99.90;;;;;;5945414;23;20283;-68
2021/09/19 11:54:20;;;;;;;;;;;19.00;99.90;;;;;;5957554;23;20099;-68
2021/09/19 11:56:47;;;;;;;;;;;19.00;99.90;;;;;;5951175;23;20204;-68
2021/09/19 11:59:14;;;;;;;;;;;18.90;99.90;;;;;;5946913;23;25079;-68
2021/09/19 12:01:40;;;;;;;;;;;18.70;99.90;;;;;;5946688;23;25060;-68
2021/09/19 12:04:07;;;;;;;;;;;18.70;99.90;;;;;;5955832;23;20530;-68
2021/09/19 12:06:33;;;;;;;;;;;18.70;99.90;;;;;;5947781;23;20430;-67
2021/09/19 12:08:58;;;;;;;;;;;18.60;99.90;;;;;;5942682;23;25054;-67
2021/09/19 12:11:56;;;;;;;;;;;18.50;99.90;;;;;;5947093;23;20326;-68
2021/09/19 12:14:25;;;;;;;;;;;18.40;99.90;;;;;;5884960;23;20078;-67
2021/09/19 12:17:11;;;;;;;;;;;18.30;99.90;;;;;;5941942;23;20109;-65
2021/09/19 12:19:40;;;;;;;;;;;18.20;99.90;;;;;;5948375;23;20470;-68
2021/09/19 12:22:07;;;;;;;;;;;18.20;99.90;;;;;;5948518;23;20446;-68
2021/09/19 12:24:34;;;;;;;;;;;18.20;99.90;;;;;;5947648;23;19963;-68
2021/09/19 12:27:13;;;;;;;;;;;18.10;99.90;;;;;;5942722;23;25046;-68
2021/09/19 12:29:45;;;;;;;;;;;18.10;99.90;;;;;;5947525;23;20081;-68
2021/09/19 12:32:10;;;;;;;;;;;18.10;99.90;;;;;;5946870;23;20607;-68
2021/09/19 12:34:36;;;;;;;;;;;18.20;99.90;;;;;;5946827;23;20158;-69
2021/09/19 12:37:01;;;;;;;;;;;18.40;99.90;;;;;;5946317;23;25049;-68
2021/09/19 12:39:28;;;;;;;;;;;18.30;99.90;;;;;;5948097;23;20065;-69
2021/09/19 12:41:55;;;;;;;;;;;18.60;99.90;;;;;;5946561;23;25099;-67
2021/09/19 12:44:28;;;;;;;;;;;19.10;99.90;;;;;;5947796;23;20493;-69
2021/09/19 12:46:55;;;;;;;;;;;19.70;99.90;;;;;;5945808;23;20127;-69
2021/09/19 12:49:22;;;;;;;;;;;20.20;99.90;;;;;;5923668;23;20096;-69
2021/09/19 12:52:03;;;;;;;;;;;20.60;99.90;;;;;;5947912;23;20107;-69
2021/09/19 12:54:28;;;;;;;;;;;20.80;99.90;;;;;;5948185;23;20519;-69
2021/09/19 12:56:54;;;;;;;;;;;20.60;99.90;;;;;;5946311;23;20125;-69
2021/09/19 12:59:21;;;;;;;;;;;20.50;99.90;;;;;;5921954;23;25041;-69
2021/09/19 13:01:46;;;;;;;;;;;20.30;99.90;;;;;;5946760;23;20192;-68
2021/09/19 13:04:12;;;;;;;;;;;20.10;99.90;;;;;;5946924;23;25088;-68
2021/09/19 13:06:37;;;;;;;;;;;19.90;99.90;;;;;;5945295;23;20057;-69
2021/09/19 13:09:06;;;;;;;;;;;19.70;99.90;;;;;;5943666;23;25125;-68
2021/09/19 13:11:32;;;;;;;;;;;19.50;99.90;;;;;;5946278;23;20083;-68
2021/09/19 13:13:57;;;;;;;;;;;19.40;99.90;;;;;;5945020;23;25047;-68
2021/09/19 13:16:23;;;;;;;;;;;19.20;99.90;;;;;;5945167;23;20166;-67
2021/09/19 13:18:48;;;;;;;;;;;19.00;99.90;;;;;;5945357;23;25077;-67
2021/09/19 13:21:14;;;;;;;;;;;18.80;99.90;;;;;;5947023;23;20415;-68
2021/09/19 13:23:40;;;;;;;;;;;18.70;99.90;;;;;;5947310;23;20341;-68
2021/09/19 13:26:05;;;;;;;;;;;18.60;99.90;;;;;;5946843;23;20109;-67
2021/09/19 13:28:31;;;;;;;;;;;18.60;99.90;;;;;;5922531;23;20084;-70
2021/09/19 13:30:57;;;;;;;;;;;18.40;99.90;;;;;;5948071;23;25048;-68
2021/09/19 13:33:22;;;;;;;;;;;18.30;99.90;;;;;;5949683;23;19977;-69
2021/09/19 13:35:47;;;;;;;;;;;18.20;99.90;;;;;;5946821;23;25081;-70
2021/09/19 13:38:13;;;;;;;;;;;18.20;99.90;;;;;;5946962;23;25093;-68
2021/09/19 13:40:38;;;;;;;;;;;18.10;99.90;;;;;;5948632;23;20071;-69
2021/09/19 13:43:05;;;;;;;;;;;18.10;99.90;;;;;;5947865;23;25052;-66
2021/09/19 13:45:37;;;;;;;;;;;18.00;99.90;;;;;;5946630;23;20008;-69
2021/09/19 13:48:02;;;;;;;;;;;18.00;99.90;;;;;;5947179;23;20409;-69
2021/09/19 13:50:28;;;;;;;;;;;18.00;99.90;;;;;;5921912;23;20063;-69
2021/09/19 13:52:54;;;;;;;;;;;18.10;99.90;;;;;;5946032;23;25071;-68
2021/09/19 13:55:19;;;;;;;;;;;18.00;99.90;;;;;;5921763;23;20105;-68
2021/09/19 13:57:45;;;;;;;;;;;18.00;99.90;;;;;;5946480;23;20105;-68
2021/09/19 14:00:10;;;;;;;;;;;17.80;99.90;;;;;;5947341;23;19958;-68
2021/09/19 14:02:36;;;;;;;;;;;17.80;99.90;;;;;;5946945;23;20076;-69
2021/09/19 14:05:03;;;;;;;;;;;17.70;99.90;;;;;;5922226;23;20096;-68
2021/09/19 14:07:28;;;;;;;;;;;17.70;99.90;;;;;;5946641;23;20489;-68
2021/09/19 14:09:54;;;;;;;;;;;17.70;99.90;;;;;;5944842;23;20100;-68
2021/09/19 14:12:19;;;;;;;;;;;17.60;99.90;;;;;;5946838;23;20101;-69
2021/09/19 14:14:47;;;;;;;;;;;17.60;99.90;;;;;;5946900;23;25049;-68
2021/09/19 14:17:13;;;;;;;;;;;17.60;99.90;;;;;;5946429;23;20537;-68